createdAt,value
2023-01-08T00:01:16.363Z,7.60
2023-01-08T00:03:44.273Z,7.10
2023-01-08T00:06:12.981Z,6.60
2023-01-08T00:08:40.296Z,7.30
2023-01-08T00:11:07.700Z,6.83
2023-01-08T00:13:35.383Z,7.17
2023-01-08T00:16:10.809Z,8.03
2023-01-08T00:18:38.305Z,7.27
2023-01-08T00:21:06.042Z,7.57
2023-01-08T00:23:34.040Z,7.40
2023-01-08T00:26:05.173Z,7.60
2023-01-08T00:28:32.563Z,7.13
2023-01-08T00:31:03.493Z,8.30
2023-01-08T00:33:31.701Z,7.00
2023-01-08T00:35:59.166Z,7.70
2023-01-08T00:38:30.210Z,7.13
2023-01-08T00:40:57.478Z,7.67
2023-01-08T00:43:24.748Z,7.90
2023-01-08T00:45:53.854Z,7.80
2023-01-08T00:48:22.453Z,7.53
2023-01-08T00:50:53.434Z,8.20
2023-01-08T00:53:21.260Z,7.83
2023-01-08T00:55:48.745Z,7.70
2023-01-08T00:58:16.264Z,8.33
2023-01-08T01:00:43.623Z,7.87
2023-01-08T01:03:10.950Z,8.17
2023-01-08T01:05:38.229Z,7.93
2023-01-08T01:08:05.611Z,7.73
2023-01-08T01:10:32.978Z,7.70
2023-01-08T01:13:00.367Z,8.07
2023-01-08T01:15:28.057Z,8.43
2023-01-08T01:17:55.616Z,8.17
2023-01-08T01:20:23.871Z,7.80
2023-01-08T01:22:51.784Z,7.87
2023-01-08T01:25:19.125Z,8.10
2023-01-08T01:27:46.494Z,7.63
2023-01-08T01:30:13.791Z,7.50
2023-01-08T01:32:40.999Z,7.53
2023-01-08T01:35:08.590Z,8.20
2023-01-08T01:37:35.835Z,7.60
2023-01-08T01:40:03.080Z,7.33
2023-01-08T01:42:43.836Z,7.40
2023-01-08T01:45:17.135Z,7.90
2023-01-08T01:47:46.952Z,7.23
2023-01-08T01:50:14.346Z,7.30
2023-01-08T01:52:43.452Z,7.57
2023-01-08T01:55:12.293Z,7.97
2023-01-08T01:57:39.786Z,7.93
2023-01-08T02:00:09.082Z,8.60
2023-01-08T02:02:39.383Z,7.43
2023-01-08T02:05:07.088Z,7.47
2023-01-08T02:07:34.338Z,7.83
2023-01-08T02:10:06.718Z,7.60
2023-01-08T02:12:39.177Z,7.57
2023-01-08T02:15:09.306Z,7.80
2023-01-08T02:17:39.614Z,7.53
2023-01-08T02:20:15.597Z,7.80
2023-01-08T02:22:49.162Z,7.50
2023-01-08T02:25:16.444Z,7.93
2023-01-08T02:27:46.389Z,7.97
2023-01-08T02:30:13.579Z,8.13
2023-01-08T02:32:41.374Z,7.83
2023-01-08T02:35:09.545Z,8.23
2023-01-08T02:37:37.630Z,7.97
2023-01-08T02:40:23.412Z,8.80
2023-01-08T02:42:50.679Z,8.40
2023-01-08T02:45:31.982Z,9.27
2023-01-08T02:47:59.184Z,8.33
2023-01-08T02:50:30.573Z,9.23
2023-01-08T02:53:16.686Z,8.63
2023-01-08T02:55:46.960Z,8.73
2023-01-08T02:58:14.618Z,9.07
2023-01-08T03:00:43.260Z,8.70
2023-01-08T03:03:16.267Z,10.00
2023-01-08T03:05:46.075Z,8.90
2023-01-08T03:08:13.749Z,9.07
2023-01-08T03:10:42.598Z,9.93
2023-01-08T03:13:12.692Z,9.23
2023-01-08T03:15:48.235Z,10.20
2023-01-08T03:18:18.126Z,9.10
2023-01-08T03:20:46.913Z,9.70
2023-01-08T03:23:14.745Z,10.03
2023-01-08T03:25:43.456Z,10.20
2023-01-08T03:28:32.919Z,9.63
2023-01-08T03:31:00.581Z,9.23
2023-01-08T03:33:28.476Z,9.30
2023-01-08T03:35:57.722Z,10.07
2023-01-08T03:38:27.337Z,9.83
2023-01-08T03:41:00.773Z,10.50
2023-01-08T03:43:29.240Z,10.10
2023-01-08T03:45:58.723Z,9.93
2023-01-08T03:48:26.699Z,10.60
2023-01-08T03:50:54.165Z,10.57
2023-01-08T03:53:21.436Z,10.47
2023-01-08T03:55:48.699Z,10.07
2023-01-08T03:58:16.008Z,10.93
2023-01-08T04:00:43.459Z,10.97
2023-01-08T04:03:10.659Z,11.70
2023-01-08T04:05:37.911Z,10.63
2023-01-08T04:08:05.292Z,10.83
2023-01-08T04:10:32.559Z,11.03
2023-01-08T04:12:59.855Z,10.33
2023-01-08T04:15:27.172Z,10.20
2023-01-08T04:17:54.759Z,10.50
2023-01-08T04:20:22.134Z,10.30
2023-01-08T04:22:49.428Z,11.13
2023-01-08T04:25:16.459Z,9.90
2023-01-08T04:27:43.313Z,10.73
2023-01-08T04:30:10.810Z,10.43
2023-01-08T04:32:37.771Z,9.33
2023-01-08T04:35:05.105Z,10.07
2023-01-08T04:37:32.006Z,10.00
2023-01-08T04:39:58.858Z,10.30
2023-01-08T04:42:25.870Z,10.37
2023-01-08T04:44:52.863Z,10.47
2023-01-08T04:47:19.652Z,10.33
2023-01-08T04:49:46.547Z,10.43
2023-01-08T04:52:13.350Z,10.53
2023-01-08T04:54:40.406Z,10.40
2023-01-08T04:57:08.441Z,10.23
2023-01-08T04:59:35.424Z,10.30
2023-01-08T05:02:02.366Z,11.10
2023-01-08T05:04:29.406Z,10.70
2023-01-08T05:06:56.306Z,10.57
2023-01-08T05:09:23.276Z,10.97
2023-01-08T05:11:50.088Z,10.90
2023-01-08T05:14:16.908Z,10.83
2023-01-08T05:16:44.026Z,10.93
2023-01-08T05:19:10.961Z,11.23
2023-01-08T05:21:37.830Z,10.67
2023-01-08T05:24:05.075Z,11.53
2023-01-08T05:26:31.857Z,10.73
2023-01-08T05:28:59.086Z,11.97
2023-01-08T05:31:25.942Z,11.37
2023-01-08T05:33:52.909Z,11.27
2023-01-08T05:36:19.796Z,12.30
2023-01-08T05:38:47.032Z,11.83
2023-01-08T05:41:13.910Z,11.87
2023-01-08T05:43:41.034Z,9.83
2023-01-08T05:46:08.021Z,11.90
2023-01-08T05:48:35.946Z,10.77
2023-01-08T05:51:04.144Z,12.83
2023-01-08T05:53:34.725Z,11.87
2023-01-08T05:56:09.182Z,12.23
2023-01-08T05:58:37.251Z,12.67
2023-01-08T06:01:16.314Z,11.70
2023-01-08T06:03:43.268Z,12.20
2023-01-08T06:06:11.255Z,12.67
2023-01-08T06:08:38.256Z,11.70
2023-01-08T06:11:07.802Z,13.03
2023-01-08T06:13:37.739Z,13.70
2023-01-08T06:16:04.987Z,12.40
2023-01-08T06:18:32.342Z,12.43
2023-01-08T06:20:59.340Z,12.53
2023-01-08T06:23:26.474Z,13.00
2023-01-08T06:25:55.135Z,13.20
2023-01-08T06:28:23.002Z,12.77
2023-01-08T06:30:50.264Z,12.97
2023-01-08T06:33:21.079Z,13.10
2023-01-08T06:35:48.341Z,12.50
2023-01-08T06:38:15.694Z,12.30
2023-01-08T06:40:42.527Z,12.63
2023-01-08T06:43:09.461Z,12.20
2023-01-08T06:45:36.595Z,13.20
2023-01-08T06:48:05.257Z,12.53
2023-01-08T06:50:33.674Z,12.40
2023-01-08T06:53:19.025Z,13.53
2023-01-08T06:55:46.038Z,12.10
2023-01-08T06:58:12.916Z,10.97
2023-01-08T07:00:40.318Z,13.23
2023-01-08T07:03:07.371Z,13.00
2023-01-08T07:05:35.294Z,12.83
2023-01-08T07:08:02.239Z,12.53
2023-01-08T07:10:31.330Z,13.53
2023-01-08T07:12:58.626Z,13.37
2023-01-08T07:15:25.575Z,12.17
2023-01-08T07:17:52.349Z,11.57
2023-01-08T07:20:19.319Z,11.67
2023-01-08T07:22:46.481Z,12.77
2023-01-08T07:25:13.478Z,12.90
2023-01-08T07:27:40.376Z,11.27
2023-01-08T07:30:12.802Z,11.90
2023-01-08T07:32:44.888Z,11.83
2023-01-08T07:35:11.803Z,11.10
2023-01-08T07:37:42.554Z,11.17
2023-01-08T07:40:11.442Z,11.00
2023-01-08T07:42:38.877Z,12.23
2023-01-08T07:45:06.388Z,11.77
2023-01-08T07:47:33.544Z,11.90
2023-01-08T07:50:00.331Z,11.13
2023-01-08T07:52:27.132Z,11.47
2023-01-08T07:54:53.991Z,11.67
2023-01-08T07:57:20.862Z,10.80
2023-01-08T07:59:47.658Z,11.10
2023-01-08T08:02:14.578Z,11.60
2023-01-08T08:04:41.528Z,10.43
2023-01-08T08:07:08.348Z,10.73
2023-01-08T08:09:35.177Z,10.30
2023-01-08T08:12:02.046Z,10.73
2023-01-08T08:14:29.073Z,11.90
2023-01-08T08:16:56.130Z,10.83
2023-01-08T08:19:23.016Z,10.10
2023-01-08T08:21:49.884Z,10.97
2023-01-08T08:24:35.570Z,9.87
2023-01-08T08:27:02.471Z,9.63
2023-01-08T08:29:29.372Z,9.73
2023-01-08T08:31:56.243Z,10.03
2023-01-08T08:34:23.316Z,10.70
2023-01-08T08:36:50.674Z,9.67
2023-01-08T08:39:17.869Z,10.40
2023-01-08T08:41:44.703Z,10.77
2023-01-08T08:44:11.612Z,9.93
2023-01-08T08:46:38.530Z,10.37
2023-01-08T08:49:05.420Z,10.20
2023-01-08T08:51:32.286Z,9.60
2023-01-08T08:53:59.170Z,9.70
2023-01-08T08:56:29.827Z,9.23
2023-01-08T08:58:58.126Z,9.50
2023-01-08T09:01:25.195Z,9.23
2023-01-08T09:03:52.168Z,8.47
2023-01-08T09:06:19.066Z,8.93
2023-01-08T09:08:46.512Z,9.10
2023-01-08T09:11:14.604Z,9.80
2023-01-08T09:13:41.686Z,9.70
2023-01-08T09:16:08.665Z,8.80
2023-01-08T09:18:54.125Z,8.83
2023-01-08T09:21:21.132Z,8.63
2023-01-08T09:23:49.434Z,7.97
2023-01-08T09:26:16.361Z,8.83
2023-01-08T09:29:02.015Z,9.03
2023-01-08T09:31:29.169Z,9.23
2023-01-08T09:33:56.050Z,9.00
2023-01-08T09:36:23.191Z,9.77
2023-01-08T09:38:50.190Z,9.97
2023-01-08T09:41:24.306Z,8.73
2023-01-08T09:43:53.847Z,9.97
2023-01-08T09:46:24.795Z,9.43
2023-01-08T09:48:54.307Z,9.83
2023-01-08T09:51:21.766Z,9.13
2023-01-08T09:53:55.527Z,9.17
2023-01-08T09:56:22.583Z,9.20
2023-01-08T09:58:53.039Z,8.97
2023-01-08T10:01:26.324Z,9.27
2023-01-08T10:03:59.711Z,8.47
2023-01-08T10:06:26.672Z,8.70
2023-01-08T10:08:54.000Z,9.33
2023-01-08T10:11:21.843Z,9.30
2023-01-08T10:13:54.478Z,9.80
2023-01-08T10:16:31.199Z,8.70
2023-01-08T10:18:59.878Z,9.30
2023-01-08T10:21:31.577Z,9.17
2023-01-08T10:23:58.651Z,9.40
2023-01-08T10:26:32.017Z,8.97
2023-01-08T10:29:19.330Z,9.00
2023-01-08T10:31:53.856Z,9.17
2023-01-08T10:34:31.202Z,10.50
2023-01-08T10:36:58.460Z,9.53
2023-01-08T10:39:31.111Z,9.50
2023-01-08T10:42:05.528Z,9.30
2023-01-08T10:44:33.953Z,9.43
2023-01-08T10:47:01.506Z,9.50
2023-01-08T10:49:32.383Z,9.33
2023-01-08T10:52:00.386Z,10.57
2023-01-08T10:54:45.540Z,8.47
2023-01-08T10:57:40.282Z,8.20
2023-01-08T11:00:26.919Z,8.00
2023-01-08T11:02:54.689Z,9.23
2023-01-08T11:05:30.129Z,9.07
2023-01-08T11:07:59.088Z,9.33
2023-01-08T11:10:27.921Z,8.53
2023-01-08T11:12:58.115Z,8.97
2023-01-08T11:15:43.937Z,9.03
2023-01-08T11:18:21.926Z,9.27
2023-01-08T11:20:49.994Z,9.30
2023-01-08T11:23:23.177Z,8.47
2023-01-08T11:26:20.656Z,9.80
2023-01-08T11:29:08.180Z,8.40
2023-01-08T11:31:55.671Z,9.13
2023-01-08T11:34:26.528Z,8.73
2023-01-08T11:37:02.338Z,8.40
2023-01-08T11:39:29.336Z,8.43
2023-01-08T11:42:06.438Z,9.80
2023-01-08T11:44:40.739Z,9.73
2023-01-08T11:47:13.689Z,8.33
2023-01-08T11:50:06.648Z,9.80
2023-01-08T11:53:09.960Z,9.60
2023-01-08T11:56:07.892Z,9.27
2023-01-08T11:59:03.933Z,9.20
2023-01-08T12:01:42.700Z,7.70
2023-01-08T12:04:44.418Z,8.37
2023-01-08T12:07:47.119Z,8.20
2023-01-08T12:10:19.271Z,9.20
2023-01-08T12:13:00.984Z,9.43
2023-01-08T12:15:47.785Z,8.60
2023-01-08T12:18:52.818Z,8.93
2023-01-08T12:21:45.976Z,8.50
2023-01-08T12:24:35.791Z,9.10
2023-01-08T12:27:54.599Z,9.47
2023-01-08T12:30:37.184Z,8.20
2023-01-08T12:33:14.726Z,10.07
2023-01-08T12:35:50.000Z,8.73
2023-01-08T12:38:34.019Z,8.83
2023-01-08T12:41:07.536Z,9.33
2023-01-08T12:43:59.005Z,9.77
2023-01-08T12:46:30.443Z,10.07
2023-01-08T12:48:57.785Z,8.27
2023-01-08T12:51:54.661Z,8.90
2023-01-08T12:55:05.242Z,8.83
2023-01-08T12:57:39.117Z,8.80
2023-01-08T13:00:20.995Z,9.47
2023-01-08T13:02:47.868Z,7.77
2023-01-08T13:05:34.985Z,9.07
2023-01-08T13:08:39.060Z,9.60
2023-01-08T13:11:07.548Z,9.43
2023-01-08T13:13:41.829Z,9.43
2023-01-08T13:16:21.688Z,8.40
2023-01-08T13:18:56.063Z,9.07
2023-01-08T13:21:32.465Z,9.20
2023-01-08T13:24:07.445Z,9.23
2023-01-08T13:26:36.780Z,9.03
2023-01-08T13:29:25.286Z,8.83
2023-01-08T13:32:44.026Z,9.60
2023-01-08T13:35:16.996Z,8.43
2023-01-08T13:37:50.641Z,8.93
2023-01-08T13:40:36.191Z,9.83
2023-01-08T13:43:05.408Z,10.10
2023-01-08T13:45:33.371Z,9.90
2023-01-08T13:48:01.758Z,10.20
2023-01-08T13:50:30.605Z,8.97
2023-01-08T13:53:02.355Z,9.43
2023-01-08T13:55:33.506Z,9.30
2023-01-08T13:58:04.680Z,9.10
2023-01-08T14:00:44.552Z,9.73
2023-01-08T14:03:39.057Z,8.77
2023-01-08T14:06:19.945Z,9.00
2023-01-08T14:08:50.076Z,8.17
2023-01-08T14:11:17.689Z,9.83
2023-01-08T14:13:44.849Z,8.87
2023-01-08T14:16:14.859Z,8.73
2023-01-08T14:18:45.888Z,10.17
2023-01-08T14:21:14.549Z,9.67
2023-01-08T14:23:46.777Z,10.17
2023-01-08T14:26:35.618Z,10.60
2023-01-08T14:29:05.036Z,10.03
2023-01-08T14:31:31.993Z,8.87
2023-01-08T14:33:59.936Z,9.47
2023-01-08T14:36:27.103Z,10.50
2023-01-08T14:38:54.047Z,10.00
2023-01-08T14:42:00.810Z,9.47
2023-01-08T14:44:36.563Z,9.87
2023-01-08T14:47:04.499Z,10.30
2023-01-08T14:49:34.619Z,11.07
2023-01-08T14:52:02.883Z,11.23
2023-01-08T14:54:36.101Z,10.47
2023-01-08T14:57:03.993Z,11.20
2023-01-08T14:59:39.954Z,10.77
2023-01-08T15:02:26.422Z,10.57
2023-01-08T15:05:23.082Z,11.33
2023-01-08T15:08:00.574Z,11.00
2023-01-08T15:10:42.043Z,10.80
2023-01-08T15:13:23.173Z,10.27
2023-01-08T15:16:12.373Z,10.80
2023-01-08T15:18:48.212Z,11.23
2023-01-08T15:21:23.132Z,10.77
2023-01-08T15:23:54.769Z,10.80
2023-01-08T15:26:22.957Z,11.33
2023-01-08T15:29:05.529Z,11.13
2023-01-08T15:31:44.437Z,10.47
2023-01-08T15:34:11.432Z,11.23
2023-01-08T15:36:38.393Z,11.10
2023-01-08T15:39:05.606Z,11.60
2023-01-08T15:41:56.139Z,11.10
2023-01-08T15:44:23.640Z,10.90
2023-01-08T15:46:52.173Z,9.97
2023-01-08T15:49:19.105Z,11.57
2023-01-08T15:51:52.212Z,11.10
2023-01-08T15:54:23.431Z,11.50
2023-01-08T15:56:50.521Z,11.47
2023-01-08T15:59:17.514Z,11.13
2023-01-08T16:01:44.687Z,12.07
2023-01-08T16:04:11.703Z,12.00
2023-01-08T16:06:38.578Z,12.43
2023-01-08T16:09:05.563Z,11.73
2023-01-08T16:11:32.799Z,11.73
2023-01-08T16:13:59.722Z,11.43
2023-01-08T16:16:27.096Z,10.73
2023-01-08T16:18:54.115Z,10.90
2023-01-08T16:21:21.102Z,9.50
2023-01-08T16:23:48.259Z,12.00
2023-01-08T16:26:16.301Z,12.20
2023-01-08T16:28:43.296Z,11.90
2023-01-08T16:31:10.700Z,13.10
2023-01-08T16:33:38.686Z,13.57
2023-01-08T16:36:08.483Z,13.70
2023-01-08T16:38:36.678Z,12.33
2023-01-08T16:41:04.722Z,13.03
2023-01-08T16:43:39.682Z,12.23
2023-01-08T16:46:14.949Z,11.80
2023-01-08T16:48:42.605Z,11.93
2023-01-08T16:51:10.506Z,11.30
2023-01-08T16:53:37.863Z,11.43
2023-01-08T16:56:05.760Z,11.63
2023-01-08T16:58:34.953Z,11.30
2023-01-08T17:01:06.794Z,11.47
2023-01-08T17:03:34.008Z,10.80
2023-01-08T17:06:08.670Z,11.97
2023-01-08T17:08:40.019Z,14.30
2023-01-08T17:11:09.229Z,11.77
2023-01-08T17:13:36.291Z,10.73
2023-01-08T17:16:05.086Z,11.67
2023-01-08T17:18:32.219Z,12.10
2023-01-08T17:20:59.201Z,12.07
2023-01-08T17:23:28.780Z,12.27
2023-01-08T17:25:57.898Z,12.27
2023-01-08T17:28:25.328Z,12.07
2023-01-08T17:31:11.509Z,11.73
2023-01-08T17:33:39.016Z,12.47
2023-01-08T17:36:13.818Z,11.80
2023-01-08T17:38:42.897Z,11.33
2023-01-08T17:41:10.971Z,11.57
2023-01-08T17:43:39.003Z,12.63
2023-01-08T17:46:07.384Z,11.30
2023-01-08T17:48:34.929Z,12.30
2023-01-08T17:51:09.264Z,12.30
2023-01-08T17:53:36.479Z,12.97
2023-01-08T17:56:05.759Z,12.30
2023-01-08T17:58:33.045Z,12.90
2023-01-08T18:01:00.045Z,14.00
2023-01-08T18:03:27.379Z,13.70
2023-01-08T18:05:54.342Z,14.67
2023-01-08T18:08:21.259Z,14.93
2023-01-08T18:10:48.615Z,14.33
2023-01-08T18:13:15.730Z,15.03
2023-01-08T18:15:42.636Z,14.97
2023-01-08T18:18:09.468Z,15.13
2023-01-08T18:20:39.405Z,15.03
2023-01-08T18:23:06.458Z,15.47
2023-01-08T18:25:33.623Z,14.67
2023-01-08T18:28:00.627Z,16.37
2023-01-08T18:30:28.993Z,15.70
2023-01-08T18:32:56.538Z,16.50
2023-01-08T18:35:23.410Z,14.70
2023-01-08T18:37:50.291Z,15.60
2023-01-08T18:40:17.408Z,16.93
2023-01-08T18:42:44.278Z,15.43
2023-01-08T18:45:12.174Z,14.80
2023-01-08T18:47:39.564Z,14.80
2023-01-08T18:50:06.864Z,15.50
2023-01-08T18:52:34.112Z,13.77
2023-01-08T18:55:01.248Z,15.33
2023-01-08T18:57:28.587Z,13.93
2023-01-08T18:59:55.819Z,15.37
2023-01-08T19:02:32.768Z,13.93
2023-01-08T19:05:00.445Z,15.20
2023-01-08T19:07:27.372Z,14.57
2023-01-08T19:09:54.450Z,14.93
2023-01-08T19:12:21.659Z,15.67
2023-01-08T19:14:48.720Z,14.50
2023-01-08T19:17:15.561Z,14.27
2023-01-08T19:19:42.442Z,14.67
2023-01-08T19:22:09.570Z,15.97
2023-01-08T19:24:37.591Z,14.67
2023-01-08T19:27:04.528Z,16.23
2023-01-08T19:29:31.498Z,15.10
2023-01-08T19:31:58.631Z,15.27
2023-01-08T19:34:25.745Z,15.80
2023-01-08T19:36:55.199Z,15.33
2023-01-08T19:39:22.902Z,15.23
2023-01-08T19:42:09.438Z,14.77
2023-01-08T19:44:37.760Z,15.23
2023-01-08T19:47:04.778Z,15.57
2023-01-08T19:49:31.937Z,14.77
2023-01-08T19:51:59.066Z,14.70
2023-01-08T19:54:26.171Z,14.60
2023-01-08T19:56:53.930Z,15.70
2023-01-08T19:59:21.290Z,14.03
2023-01-08T20:01:48.523Z,14.30
2023-01-08T20:04:15.477Z,14.20
2023-01-08T20:06:42.495Z,14.20
2023-01-08T20:09:09.680Z,13.43
2023-01-08T20:11:36.744Z,14.53
2023-01-08T20:14:05.380Z,13.43
2023-01-08T20:16:33.162Z,13.70
2023-01-08T20:19:04.527Z,12.87
2023-01-08T20:21:34.210Z,13.03
2023-01-08T20:24:07.831Z,13.47
2023-01-08T20:26:36.157Z,12.90
2023-01-08T20:29:04.267Z,13.53
2023-01-08T20:31:32.894Z,13.87
2023-01-08T20:34:02.455Z,12.80
2023-01-08T20:36:32.289Z,13.10
2023-01-08T20:39:01.580Z,13.47
2023-01-08T20:41:29.710Z,13.37
2023-01-08T20:43:56.775Z,13.13
2023-01-08T20:46:28.472Z,13.13
2023-01-08T20:48:56.920Z,12.47
2023-01-08T20:51:23.946Z,13.17
2023-01-08T20:53:51.053Z,13.33
2023-01-08T20:56:18.337Z,12.73
2023-01-08T20:58:47.878Z,12.30
2023-01-08T21:01:21.276Z,13.20
2023-01-08T21:03:49.810Z,12.27
2023-01-08T21:06:20.176Z,12.93
2023-01-08T21:08:49.264Z,13.50
2023-01-08T21:11:17.033Z,12.93
2023-01-08T21:13:44.570Z,12.47
2023-01-08T21:16:22.950Z,12.53
2023-01-08T21:18:51.122Z,12.83
2023-01-08T21:21:33.108Z,12.70
2023-01-08T21:24:05.031Z,12.10
2023-01-08T21:26:33.854Z,12.77
2023-01-08T21:29:06.200Z,12.53
2023-01-08T21:31:35.176Z,13.03
2023-01-08T21:34:03.571Z,11.87
2023-01-08T21:36:33.661Z,12.70
2023-01-08T21:39:01.883Z,13.60
2023-01-08T21:41:49.196Z,12.90
2023-01-08T21:44:40.941Z,13.70
2023-01-08T21:47:12.144Z,12.97
2023-01-08T21:49:39.186Z,13.63
2023-01-08T21:52:25.079Z,14.43
2023-01-08T21:54:52.324Z,13.70
2023-01-08T21:57:19.509Z,13.83
2023-01-08T21:59:49.740Z,13.40
2023-01-08T22:02:18.860Z,13.43
2023-01-08T22:04:46.526Z,13.20
2023-01-08T22:07:13.772Z,12.90
2023-01-08T22:09:40.704Z,13.43
2023-01-08T22:12:08.244Z,13.67
2023-01-08T22:14:35.243Z,14.73
2023-01-08T22:17:04.117Z,14.10
2023-01-08T22:19:31.322Z,14.03
2023-01-08T22:21:58.159Z,13.33
2023-01-08T22:24:25.169Z,13.10
2023-01-08T22:26:52.086Z,13.13
2023-01-08T22:29:19.355Z,13.63
2023-01-08T22:31:46.357Z,13.33
2023-01-08T22:34:19.786Z,13.43
2023-01-08T22:36:50.061Z,13.70
2023-01-08T22:39:17.199Z,12.47
2023-01-08T22:41:44.730Z,13.50
2023-01-08T22:44:12.300Z,13.13
2023-01-08T22:46:39.432Z,12.90
2023-01-08T22:49:06.471Z,12.77
2023-01-08T22:51:33.408Z,13.67
2023-01-08T22:54:00.410Z,13.83
2023-01-08T22:56:27.492Z,14.03
2023-01-08T22:58:54.963Z,12.70
2023-01-08T23:01:27.331Z,14.13
2023-01-08T23:03:56.822Z,13.20
2023-01-08T23:06:25.678Z,13.60
2023-01-08T23:08:53.310Z,12.50
2023-01-08T23:11:21.909Z,13.87
2023-01-08T23:13:51.201Z,13.27
2023-01-08T23:16:20.210Z,13.43
2023-01-08T23:18:47.653Z,13.60
2023-01-08T23:21:20.477Z,11.93
2023-01-08T23:23:47.671Z,11.70
2023-01-08T23:26:32.934Z,14.20
2023-01-08T23:29:00.697Z,12.97
2023-01-08T23:31:29.269Z,12.50
2023-01-08T23:33:56.844Z,13.73
2023-01-08T23:36:24.448Z,14.00
2023-01-08T23:38:54.538Z,12.40
2023-01-08T23:41:23.390Z,12.63
2023-01-08T23:43:50.348Z,12.37
2023-01-08T23:46:17.928Z,13.60
2023-01-08T23:48:45.330Z,12.10
2023-01-08T23:51:12.121Z,12.97
2023-01-08T23:53:39.052Z,13.23
2023-01-08T23:56:06.289Z,12.70
2023-01-08T23:58:33.209Z,12.43
